Terminal Aerodrome Forecast
Issued by NWS

Home | Current Version | Previous Version | Text Only | Print | Product List | Glossary On
Versions: 1 2 3 4 5 6 7 8 9 10 11 12 13 14 15 16 17
000
FTUS45 KTFX 260520
TAFCTB
TAF
KCTB 260520Z 2606/2706 32009KT P6SM BKN100
      TEMPO 2606/2608 -SHRA SCT070 BKN100
     FM261200 32007KT P6SM BKN090
     FM261800 26006KT P6SM FEW080=

USA.gov is the U.S. government's official web portal to all federal, state and local government web resources and services.